createdAt,value
2019-03-31T00:02:20.780Z,99.90
2019-03-31T00:04:57.840Z,99.90
2019-03-31T00:07:27.788Z,99.90
2019-03-31T00:10:10.915Z,99.90
2019-03-31T00:12:47.050Z,99.90
2019-03-31T00:15:23.862Z,99.90
2019-03-31T00:17:53.825Z,99.90
2019-03-31T00:20:24.084Z,99.90
2019-03-31T00:23:00.144Z,99.90
2019-03-31T00:25:30.046Z,99.90
2019-03-31T00:27:59.865Z,99.90
2019-03-31T00:30:36.770Z,99.90
2019-03-31T00:33:06.629Z,99.90
2019-03-31T00:35:36.496Z,99.90
2019-03-31T00:38:12.743Z,99.90
2019-03-31T00:40:49.302Z,99.90
2019-03-31T00:43:25.406Z,99.90
2019-03-31T00:45:55.431Z,99.90
2019-03-31T00:48:25.713Z,99.90
2019-03-31T00:51:02.035Z,99.90
2019-03-31T00:53:32.004Z,99.90
2019-03-31T00:56:01.862Z,99.90
2019-03-31T00:58:39.978Z,99.90
2019-03-31T01:01:36.250Z,99.90
2019-03-31T01:04:06.640Z,99.90
2019-03-31T01:06:37.002Z,99.90
2019-03-31T01:09:26.819Z,99.90
2019-03-31T01:12:03.257Z,99.90
2019-03-31T01:14:45.432Z,99.90
2019-03-31T01:17:18.660Z,99.90
2019-03-31T01:19:47.292Z,99.90
2019-03-31T01:22:24.238Z,99.90
2019-03-31T01:24:54.443Z,99.90
2019-03-31T01:27:24.392Z,99.90
2019-03-31T01:30:01.307Z,99.90
2019-03-31T01:32:32.419Z,99.90
2019-03-31T01:35:03.086Z,99.90
2019-03-31T01:37:39.851Z,99.90
2019-03-31T01:40:10.360Z,99.90
2019-03-31T01:42:54.329Z,99.90
2019-03-31T01:45:24.002Z,99.90
2019-03-31T01:47:53.629Z,99.90
2019-03-31T01:50:30.597Z,99.90
2019-03-31T01:53:00.400Z,99.90
2019-03-31T01:55:30.238Z,99.90
2019-03-31T01:58:06.848Z,99.90
2019-03-31T02:00:45.354Z,99.90
2019-03-31T02:03:21.635Z,99.90
2019-03-31T02:05:51.307Z,99.90
2019-03-31T02:08:21.137Z,99.90
2019-03-31T02:10:57.483Z,99.90
2019-03-31T02:13:33.638Z,99.90
2019-03-31T02:16:09.962Z,99.90
2019-03-31T02:18:39.805Z,99.90
2019-03-31T02:21:09.729Z,99.90
2019-03-31T02:23:46.383Z,99.90
2019-03-31T02:26:16.343Z,99.90
2019-03-31T02:28:46.175Z,99.90
2019-03-31T02:31:22.364Z,99.90
2019-03-31T02:33:52.175Z,99.90
2019-03-31T02:36:22.040Z,99.90
2019-03-31T02:38:58.498Z,99.90
2019-03-31T02:41:28.383Z,99.90
2019-03-31T02:44:11.832Z,99.90
2019-03-31T02:46:41.764Z,99.90
2019-03-31T02:49:11.631Z,99.90
2019-03-31T02:51:48.004Z,99.90
2019-03-31T02:54:18.093Z,99.90
2019-03-31T02:56:47.845Z,99.90
2019-03-31T02:59:26.131Z,99.90
2019-03-31T03:01:57.794Z,99.90
2019-03-31T03:04:36.481Z,99.90
2019-03-31T03:07:08.125Z,99.90
2019-03-31T03:09:45.933Z,99.90
2019-03-31T03:12:24.517Z,99.90
2019-03-31T03:15:10.391Z,99.90
2019-03-31T03:17:40.231Z,99.90
2019-03-31T03:20:10.154Z,99.90
2019-03-31T03:22:47.449Z,99.90
2019-03-31T03:25:17.346Z,99.90
2019-03-31T03:27:47.241Z,99.90
2019-03-31T03:30:23.491Z,99.90
2019-03-31T03:33:13.476Z,99.90
2019-03-31T03:35:24.905Z,99.90
2019-03-31T03:38:01.761Z,99.90
2019-03-31T03:40:31.704Z,99.90
2019-03-31T03:43:01.568Z,99.90
2019-03-31T03:45:44.823Z,99.90
2019-03-31T03:48:14.749Z,99.90
2019-03-31T03:50:44.583Z,99.90
2019-03-31T03:53:20.863Z,99.90
2019-03-31T03:55:50.793Z,99.90
2019-03-31T03:58:20.560Z,99.90
2019-03-31T04:00:57.602Z,99.90
2019-03-31T04:03:30.869Z,99.90
2019-03-31T04:05:58.594Z,99.90
2019-03-31T04:08:34.623Z,99.90
2019-03-31T04:11:30.493Z,99.90
2019-03-31T04:14:12.860Z,99.90
2019-03-31T04:16:49.371Z,99.90
2019-03-31T04:19:25.827Z,99.90
2019-03-31T04:21:55.647Z,99.90
2019-03-31T04:24:25.555Z,99.90
2019-03-31T04:27:02.299Z,99.90
2019-03-31T04:29:32.475Z,99.90
2019-03-31T04:32:02.133Z,99.90
2019-03-31T04:34:38.869Z,99.90
2019-03-31T04:37:08.725Z,99.90
2019-03-31T04:39:39.419Z,99.90
2019-03-31T04:42:16.606Z,99.90
2019-03-31T04:44:46.187Z,99.90
2019-03-31T04:47:30.062Z,99.90
2019-03-31T04:49:59.993Z,99.90
2019-03-31T04:52:29.826Z,99.90
2019-03-31T04:55:06.579Z,99.90
2019-03-31T04:57:36.488Z,99.90
2019-03-31T05:00:06.583Z,99.90
2019-03-31T05:02:42.850Z,99.90
2019-03-31T05:05:12.836Z,99.90
2019-03-31T05:07:42.705Z,99.90
2019-03-31T05:10:19.074Z,99.90
2019-03-31T05:12:55.111Z,99.90
2019-03-31T05:15:38.131Z,99.90
2019-03-31T05:18:08.349Z,99.90
2019-03-31T05:20:38.211Z,99.90
2019-03-31T05:23:14.973Z,99.90
2019-03-31T05:25:44.870Z,99.90
2019-03-31T05:28:14.676Z,99.90
2019-03-31T05:30:50.954Z,99.90
2019-03-31T05:33:21.123Z,99.90
2019-03-31T05:35:50.957Z,99.90
2019-03-31T05:38:27.211Z,99.90
2019-03-31T05:40:57.053Z,99.90
2019-03-31T05:43:26.916Z,99.90
2019-03-31T05:46:03.794Z,99.90
2019-03-31T05:48:40.733Z,99.90
2019-03-31T05:51:17.501Z,99.90
2019-03-31T05:53:47.530Z,99.90
2019-03-31T05:56:17.373Z,99.90
2019-03-31T05:58:54.186Z,99.90
2019-03-31T06:01:49.656Z,99.90
2019-03-31T06:04:33.689Z,99.90
2019-03-31T06:07:03.479Z,99.90
2019-03-31T06:09:33.166Z,99.90
2019-03-31T06:12:09.815Z,99.90
2019-03-31T06:14:39.649Z,99.90
2019-03-31T06:17:09.078Z,99.90
2019-03-31T06:19:45.306Z,99.90
2019-03-31T06:22:15.164Z,99.90
2019-03-31T06:24:44.668Z,99.90
2019-03-31T06:27:21.749Z,99.90
2019-03-31T06:29:51.612Z,99.90
2019-03-31T06:32:21.274Z,99.90
2019-03-31T06:34:58.198Z,99.90
2019-03-31T06:37:28.649Z,99.90
2019-03-31T06:39:58.479Z,99.90
2019-03-31T06:42:35.003Z,99.90
2019-03-31T06:45:04.982Z,99.90
2019-03-31T06:47:34.803Z,99.90
2019-03-31T06:50:18.282Z,99.90
2019-03-31T06:52:47.938Z,99.90
2019-03-31T06:55:17.695Z,99.90
2019-03-31T06:57:54.345Z,99.90
2019-03-31T07:00:24.109Z,99.90
2019-03-31T07:03:06.539Z,99.90
2019-03-31T07:05:43.157Z,99.90
2019-03-31T07:08:19.085Z,99.90
2019-03-31T07:10:48.593Z,99.90
2019-03-31T07:13:18.571Z,99.90
2019-03-31T07:15:54.785Z,99.90
2019-03-31T07:18:24.564Z,99.90
2019-03-31T07:20:54.423Z,99.90
2019-03-31T07:23:31.386Z,99.90
2019-03-31T07:26:01.113Z,99.90
2019-03-31T07:28:30.890Z,99.90
2019-03-31T07:31:07.026Z,99.90
2019-03-31T07:33:36.853Z,99.90
2019-03-31T07:36:06.853Z,99.90
2019-03-31T07:38:43.049Z,99.90
2019-03-31T07:41:13.485Z,99.90
2019-03-31T07:43:43.497Z,99.90
2019-03-31T07:46:19.818Z,99.90
2019-03-31T07:48:49.779Z,99.90
2019-03-31T07:51:40.270Z,99.90
2019-03-31T07:54:10.304Z,99.90
2019-03-31T07:56:47.190Z,99.90
2019-03-31T07:59:16.986Z,99.90
2019-03-31T08:01:46.891Z,99.90
2019-03-31T08:04:24.122Z,99.90
2019-03-31T08:06:59.991Z,99.90
2019-03-31T08:09:36.882Z,99.90
2019-03-31T08:12:07.309Z,99.90
2019-03-31T08:14:36.875Z,99.90
2019-03-31T08:17:13.096Z,99.90
2019-03-31T08:19:42.721Z,99.90
2019-03-31T08:22:12.462Z,99.90
2019-03-31T08:24:51.976Z,99.90
2019-03-31T08:27:22.018Z,99.90
2019-03-31T08:30:00.068Z,99.90
2019-03-31T08:32:30.232Z,99.90
2019-03-31T08:35:00.092Z,99.90
2019-03-31T08:37:29.960Z,99.90
2019-03-31T08:40:05.992Z,99.90
2019-03-31T08:42:35.823Z,99.90
2019-03-31T08:45:06.206Z,99.90
2019-03-31T08:47:42.484Z,99.90
2019-03-31T08:50:12.401Z,99.90
2019-03-31T08:52:55.465Z,99.90
2019-03-31T08:55:24.993Z,99.90
2019-03-31T08:57:54.779Z,99.90
2019-03-31T09:00:49.253Z,99.90
2019-03-31T09:03:25.642Z,99.90
2019-03-31T09:06:08.452Z,99.90
2019-03-31T09:08:37.963Z,99.90
2019-03-31T09:11:07.577Z,99.90
2019-03-31T09:13:44.280Z,99.90
2019-03-31T09:16:13.756Z,99.90
2019-03-31T09:18:43.562Z,99.90
2019-03-31T09:21:20.042Z,99.90
2019-03-31T09:23:49.950Z,99.90
2019-03-31T09:26:19.847Z,99.90
2019-03-31T09:28:56.062Z,99.90
2019-03-31T09:31:25.848Z,99.90
2019-03-31T09:33:55.362Z,99.90
2019-03-31T09:36:31.494Z,99.90
2019-03-31T09:39:01.299Z,99.90
2019-03-31T09:41:31.060Z,99.90
2019-03-31T09:44:07.631Z,99.90
2019-03-31T09:46:37.442Z,99.90
2019-03-31T09:49:07.303Z,99.90
2019-03-31T09:51:44.244Z,99.90
2019-03-31T09:54:21.106Z,99.90
2019-03-31T09:56:57.654Z,99.90
2019-03-31T09:59:27.593Z,99.90
2019-03-31T10:01:57.433Z,99.90
2019-03-31T10:04:33.869Z,99.90
2019-03-31T10:07:10.298Z,99.90
2019-03-31T10:09:47.011Z,99.90
2019-03-31T10:12:16.756Z,99.90
2019-03-31T10:14:46.603Z,99.90
2019-03-31T10:17:23.358Z,99.90
2019-03-31T10:19:53.225Z,99.90
2019-03-31T10:22:23.470Z,99.90
2019-03-31T10:24:59.707Z,99.90
2019-03-31T10:27:29.610Z,99.90
2019-03-31T10:30:00.643Z,99.90
2019-03-31T10:32:36.553Z,99.90
2019-03-31T10:35:07.558Z,99.90
2019-03-31T10:37:37.471Z,99.90
2019-03-31T10:40:16.382Z,99.90
2019-03-31T10:42:46.165Z,99.90
2019-03-31T10:45:15.865Z,99.90
2019-03-31T10:47:52.853Z,99.90
2019-03-31T10:50:22.929Z,99.90
2019-03-31T10:52:52.921Z,99.90
2019-03-31T10:55:35.790Z,99.90
2019-03-31T10:58:05.519Z,99.90
2019-03-31T11:00:36.360Z,99.90
2019-03-31T11:03:14.089Z,99.90
2019-03-31T11:05:50.646Z,99.90
2019-03-31T11:08:33.516Z,99.90
2019-03-31T11:11:03.358Z,99.90
2019-03-31T11:13:33.292Z,99.90
2019-03-31T11:16:09.973Z,99.90
2019-03-31T11:18:39.767Z,99.90
2019-03-31T11:21:22.878Z,99.90
2019-03-31T11:23:52.784Z,99.90
2019-03-31T11:26:22.710Z,99.90
2019-03-31T11:28:58.843Z,99.90
2019-03-31T11:31:28.668Z,99.90
2019-03-31T11:33:58.382Z,99.90
2019-03-31T11:36:35.011Z,99.90
2019-03-31T11:39:06.875Z,99.90
2019-03-31T11:41:36.763Z,99.90
2019-03-31T11:44:12.972Z,99.90
2019-03-31T11:46:42.812Z,99.90
2019-03-31T11:49:12.410Z,99.90
2019-03-31T11:51:48.747Z,99.90
2019-03-31T11:54:18.572Z,99.90
2019-03-31T11:57:01.879Z,99.40
2019-03-31T11:59:31.825Z,99.90
2019-03-31T12:02:01.907Z,99.90
2019-03-31T12:04:38.624Z,99.80
2019-03-31T12:07:27.234Z,99.90
2019-03-31T12:09:59.178Z,99.90
2019-03-31T12:12:29.167Z,99.90
2019-03-31T12:15:00.558Z,99.10
2019-03-31T12:17:37.152Z,98.40
2019-03-31T12:20:07.389Z,99.90
2019-03-31T12:22:37.346Z,96.90
2019-03-31T12:25:14.679Z,97.80
2019-03-31T12:27:44.685Z,94.90
2019-03-31T12:30:23.519Z,92.20
2019-03-31T12:32:53.449Z,92.30
2019-03-31T12:35:23.368Z,92.90
2019-03-31T12:37:59.440Z,94.70
2019-03-31T12:40:33.678Z,91.70
2019-03-31T12:43:10.326Z,90.20
2019-03-31T12:45:43.000Z,90.10
2019-03-31T12:48:11.751Z,90.00
2019-03-31T12:50:47.920Z,89.20
2019-03-31T12:53:17.731Z,85.90
2019-03-31T12:55:59.403Z,90.50
2019-03-31T12:58:32.977Z,90.60
2019-03-31T13:01:02.871Z,88.30
2019-03-31T13:03:33.944Z,90.00
2019-03-31T13:06:10.359Z,82.60
2019-03-31T13:08:46.557Z,84.90
2019-03-31T13:11:30.510Z,78.60
2019-03-31T13:14:00.433Z,82.30
2019-03-31T13:16:30.770Z,78.80
2019-03-31T13:19:06.767Z,79.10
2019-03-31T13:21:36.644Z,79.30
2019-03-31T13:24:06.480Z,76.40
2019-03-31T13:26:42.547Z,76.40
2019-03-31T13:29:12.408Z,80.60
2019-03-31T13:31:42.282Z,80.60
2019-03-31T13:34:19.486Z,83.30
2019-03-31T13:36:49.379Z,78.60
2019-03-31T13:39:19.337Z,82.80
2019-03-31T13:41:56.601Z,81.90
2019-03-31T13:44:27.983Z,77.80
2019-03-31T13:46:57.848Z,75.70
2019-03-31T13:49:33.845Z,78.90
2019-03-31T13:52:03.752Z,81.50
2019-03-31T13:54:47.203Z,78.20
2019-03-31T13:57:17.399Z,79.40
2019-03-31T14:00:00.814Z,78.00
2019-03-31T14:02:30.780Z,76.00
2019-03-31T14:05:00.651Z,73.70
2019-03-31T14:07:36.672Z,80.30
2019-03-31T14:10:13.042Z,78.00
2019-03-31T14:12:49.468Z,72.30
2019-03-31T14:15:19.917Z,70.60
2019-03-31T14:17:49.846Z,73.80
2019-03-31T14:20:27.013Z,71.80
2019-03-31T14:22:59.415Z,68.30
2019-03-31T14:25:36.091Z,69.60
2019-03-31T14:28:05.995Z,66.30
2019-03-31T14:30:35.887Z,70.60
2019-03-31T14:33:12.605Z,70.40
2019-03-31T14:35:42.756Z,75.70
2019-03-31T14:38:13.760Z,68.80
2019-03-31T14:40:49.962Z,68.00
2019-03-31T14:43:20.119Z,66.60
2019-03-31T14:45:49.792Z,68.00
2019-03-31T14:48:26.318Z,69.60
2019-03-31T14:50:56.242Z,73.20
2019-03-31T14:53:26.203Z,72.70
2019-03-31T14:56:03.224Z,73.00
2019-03-31T14:58:33.096Z,71.10
2019-03-31T15:01:16.512Z,72.40
2019-03-31T15:03:46.357Z,69.90
2019-03-31T15:06:16.371Z,71.10
2019-03-31T15:08:54.678Z,71.80
2019-03-31T15:11:31.233Z,70.90
2019-03-31T15:14:08.009Z,71.00
2019-03-31T15:16:37.998Z,73.60
2019-03-31T15:19:08.810Z,79.30
2019-03-31T15:21:45.393Z,77.60
2019-03-31T15:24:15.234Z,75.90
2019-03-31T15:26:45.205Z,76.50
2019-03-31T15:29:22.016Z,78.00
2019-03-31T15:31:51.902Z,76.80
2019-03-31T15:34:21.939Z,74.70
2019-03-31T15:36:59.322Z,72.90
2019-03-31T15:39:29.279Z,74.50
2019-03-31T15:41:59.141Z,73.20
2019-03-31T15:44:35.756Z,73.60
2019-03-31T15:47:05.555Z,74.50
2019-03-31T15:49:35.426Z,73.70
2019-03-31T15:52:11.615Z,74.60
2019-03-31T15:54:41.488Z,74.60
2019-03-31T15:57:11.475Z,76.10
2019-03-31T15:59:56.916Z,75.20
2019-03-31T16:02:34.519Z,75.50
2019-03-31T16:05:12.846Z,76.00
2019-03-31T16:07:45.081Z,75.30
2019-03-31T16:10:28.022Z,75.10
2019-03-31T16:13:04.777Z,72.00
2019-03-31T16:15:41.139Z,73.30
2019-03-31T16:18:10.806Z,73.10
2019-03-31T16:20:39.876Z,73.40
2019-03-31T16:23:17.423Z,76.40
2019-03-31T16:25:51.104Z,74.00
2019-03-31T16:28:28.478Z,72.60
2019-03-31T16:30:57.857Z,73.50
2019-03-31T16:33:27.460Z,72.80
2019-03-31T16:36:03.522Z,74.10
2019-03-31T16:38:32.895Z,74.40
2019-03-31T16:41:02.058Z,74.40
2019-03-31T16:43:39.499Z,77.90
2019-03-31T16:46:08.815Z,78.00
2019-03-31T16:48:37.657Z,77.40
2019-03-31T16:51:13.185Z,76.80
2019-03-31T16:53:42.985Z,76.70
2019-03-31T16:56:12.269Z,76.20
2019-03-31T16:58:48.604Z,77.60
2019-03-31T17:01:17.904Z,75.80
2019-03-31T17:04:00.175Z,75.20
2019-03-31T17:06:29.485Z,76.30
2019-03-31T17:08:59.740Z,73.40
2019-03-31T17:11:36.570Z,74.20
2019-03-31T17:14:12.040Z,76.00
2019-03-31T17:16:47.902Z,75.50
2019-03-31T17:19:17.206Z,74.50
2019-03-31T17:21:47.421Z,75.50
2019-03-31T17:24:23.501Z,76.50
2019-03-31T17:26:52.810Z,76.10
2019-03-31T17:29:23.215Z,75.00
2019-03-31T17:32:00.544Z,76.50
2019-03-31T17:34:29.840Z,77.20
2019-03-31T17:37:02.325Z,77.80
2019-03-31T17:39:38.172Z,76.50
2019-03-31T17:42:07.024Z,80.30
2019-03-31T17:44:36.347Z,77.80
2019-03-31T17:47:12.773Z,78.10
2019-03-31T17:49:42.198Z,79.60
2019-03-31T17:52:11.517Z,80.10
2019-03-31T17:54:47.964Z,80.50
2019-03-31T17:57:18.287Z,81.10
2019-03-31T17:59:48.615Z,81.40
2019-03-31T18:02:26.688Z,80.80
2019-03-31T18:05:02.548Z,81.80
2019-03-31T18:07:38.652Z,81.70
2019-03-31T18:10:21.314Z,81.20
2019-03-31T18:12:59.362Z,83.00
2019-03-31T18:15:28.696Z,82.40
2019-03-31T18:17:58.943Z,84.20
2019-03-31T18:20:34.948Z,83.50
2019-03-31T18:23:04.455Z,82.80
2019-03-31T18:25:33.973Z,83.20
2019-03-31T18:28:09.681Z,82.20
2019-03-31T18:30:39.193Z,82.80
2019-03-31T18:33:09.813Z,82.30
2019-03-31T18:35:45.631Z,82.60
2019-03-31T18:38:15.027Z,84.00
2019-03-31T18:40:44.275Z,83.60
2019-03-31T18:43:21.028Z,83.10
2019-03-31T18:45:50.484Z,84.10
2019-03-31T18:48:19.823Z,83.90
2019-03-31T18:50:55.295Z,81.90
2019-03-31T18:53:44.667Z,82.70
2019-03-31T18:56:40.171Z,83.80
2019-03-31T18:59:46.963Z,83.70
2019-03-31T19:02:41.006Z,84.20
2019-03-31T19:05:41.308Z,83.20
2019-03-31T19:09:00.591Z,83.90
2019-03-31T19:11:54.181Z,86.40
2019-03-31T19:14:48.823Z,86.40
2019-03-31T19:17:35.631Z,87.60
2019-03-31T19:20:36.617Z,87.10
2019-03-31T19:23:27.897Z,89.50
2019-03-31T19:26:18.686Z,87.60
2019-03-31T19:29:19.980Z,89.40
2019-03-31T19:32:12.389Z,89.80
2019-03-31T19:34:48.649Z,89.50
2019-03-31T19:37:49.498Z,90.60
2019-03-31T19:40:41.657Z,90.60
2019-03-31T19:43:46.193Z,90.30
2019-03-31T19:46:31.134Z,90.30
2019-03-31T19:49:29.525Z,90.70
2019-03-31T19:52:19.923Z,90.90
2019-03-31T19:55:17.632Z,90.80
2019-03-31T19:58:04.438Z,91.80
2019-03-31T20:01:12.242Z,92.00
2019-03-31T20:03:57.447Z,92.10
2019-03-31T20:06:52.658Z,91.90
2019-03-31T20:09:47.707Z,93.90
2019-03-31T20:12:45.087Z,94.00
2019-03-31T20:15:34.951Z,93.30
2019-03-31T20:18:32.392Z,93.50
2019-03-31T20:21:08.946Z,93.40
2019-03-31T20:23:53.502Z,93.90
2019-03-31T20:26:55.296Z,94.00
2019-03-31T20:29:40.082Z,93.90
2019-03-31T20:32:26.292Z,93.40
2019-03-31T20:35:17.910Z,93.60
2019-03-31T20:38:18.083Z,94.30
2019-03-31T20:41:06.311Z,94.80
2019-03-31T20:43:53.411Z,94.90
2019-03-31T20:46:30.627Z,94.40
2019-03-31T20:49:00.442Z,95.00
2019-03-31T20:51:30.108Z,95.50
2019-03-31T20:54:06.397Z,95.70
2019-03-31T20:56:35.790Z,95.30
2019-03-31T20:59:05.422Z,96.60
2019-03-31T21:01:41.725Z,95.80
2019-03-31T21:04:11.210Z,95.80
2019-03-31T21:06:40.633Z,96.80
2019-03-31T21:09:16.798Z,97.30
2019-03-31T21:12:14.978Z,98.40
2019-03-31T21:14:50.920Z,99.00
2019-03-31T21:17:20.475Z,99.60
2019-03-31T21:19:51.323Z,99.90
2019-03-31T21:22:27.250Z,99.90
2019-03-31T21:24:56.621Z,99.90
2019-03-31T21:27:26.078Z,99.90
2019-03-31T21:30:02.526Z,99.90
2019-03-31T21:32:31.923Z,99.90
2019-03-31T21:35:01.375Z,99.90
2019-03-31T21:37:37.195Z,99.90
2019-03-31T21:40:06.935Z,99.90
2019-03-31T21:42:36.378Z,99.90
2019-03-31T21:45:12.306Z,99.90
2019-03-31T21:47:41.937Z,99.90
2019-03-31T21:50:13.141Z,99.90
2019-03-31T21:52:49.134Z,99.90
2019-03-31T21:55:18.565Z,99.90
2019-03-31T21:57:47.993Z,99.90
2019-03-31T22:00:27.512Z,99.90
2019-03-31T22:02:56.990Z,99.90
2019-03-31T22:05:26.764Z,99.90
2019-03-31T22:08:03.980Z,99.90
2019-03-31T22:10:33.451Z,99.90
2019-03-31T22:13:23.156Z,99.90
2019-03-31T22:15:52.565Z,99.90
2019-03-31T22:18:21.937Z,99.90
2019-03-31T22:20:58.244Z,99.90
2019-03-31T22:23:27.625Z,99.90
2019-03-31T22:25:56.955Z,99.90
2019-03-31T22:28:33.395Z,99.90
2019-03-31T22:31:03.371Z,99.90
2019-03-31T22:33:32.767Z,99.90
2019-03-31T22:36:26.745Z,99.90
2019-03-31T22:38:55.964Z,99.90
2019-03-31T22:41:25.257Z,99.90
2019-03-31T22:44:01.701Z,99.90
2019-03-31T22:46:30.856Z,99.90
2019-03-31T22:48:59.945Z,99.90
2019-03-31T22:51:36.232Z,99.90
2019-03-31T22:54:06.293Z,99.90
2019-03-31T22:56:35.783Z,99.90
2019-03-31T22:59:12.190Z,99.90
2019-03-31T23:01:42.100Z,99.90
2019-03-31T23:04:11.928Z,99.90
2019-03-31T23:06:47.874Z,99.90
2019-03-31T23:09:17.748Z,99.90
2019-03-31T23:11:47.537Z,99.90
2019-03-31T23:14:30.968Z,99.90
2019-03-31T23:17:07.503Z,99.90
2019-03-31T23:19:43.052Z,99.90
2019-03-31T23:22:12.819Z,99.90
2019-03-31T23:24:42.452Z,99.90
2019-03-31T23:27:19.043Z,99.90
2019-03-31T23:29:50.319Z,99.90
2019-03-31T23:32:20.254Z,99.90
2019-03-31T23:34:57.016Z,99.90
2019-03-31T23:37:26.314Z,99.90
2019-03-31T23:39:56.178Z,99.90
2019-03-31T23:42:32.461Z,99.90
2019-03-31T23:45:02.006Z,99.90
2019-03-31T23:47:31.536Z,99.90
2019-03-31T23:50:07.645Z,99.90
2019-03-31T23:52:37.359Z,99.90
2019-03-31T23:55:07.367Z,99.90
2019-03-31T23:57:50.065Z,99.90
